Terminal Aerodrome Forecast
Issued by NWS

Home | Current Version | Previous Version | Text Only | Print | Product List | Glossary On
Versions: 1 2 3 4 5 6 7 8 9 10 11 12 13 14 15 16 17 18 19 20 21 22 23 24 25 26 27 28 29 30 31 32
000
FTUS45 KABQ 282300
TAFLVS
TAF
KLVS 282320Z 0100/0124 19015G23KT P6SM SCT028 BKN045
      TEMPO 0100/0102 3SM -SN BR BKN018
     FM010300 21010G18KT P6SM VCSH SCT015 BKN040
     FM010900 20011KT P6SM VCFG SCT008
     FM011900 22010G18KT P6SM FEW200=

USA.gov is the U.S. government's official web portal to all federal, state and local government web resources and services.